Time,TemperatureF,DewpointF,PressureIn,WindDirection,WindDirectionDegrees,WindSpeedMPH,WindSpeedGustMPH,Humidity,HourlyPrecipIn,Conditions,Clouds,dailyrainin,SoftwareType,DateUTC
2013-10-10 00:00:00,67.3,57.0,30.81,East,97,0.0,-999.0,70,-99.99,,,0.00,weatherlink.com 1.10,2013-10-10 05:00:00,
2013-10-10 00:15:00,66.9,56.0,30.81,East,96,0.0,-999.0,69,-99.99,,,0.00,weatherlink.com 1.10,2013-10-10 05:15:00,
2013-10-10 00:32:00,66.4,56.0,30.81,East,96,0.0,-999.0,69,-99.99,,,0.00,weatherlink.com 1.10,2013-10-10 05:32:00,
2013-10-10 00:45:00,64.7,53.0,30.82,East,101,2.0,-999.0,66,-99.99,,,0.00,weatherlink.com 1.10,2013-10-10 05:45:00,
2013-10-10 01:01:00,64.2,52.0,30.82,East,101,0.0,-999.0,64,-99.99,,,0.00,weatherlink.com 1.10,2013-10-10 06:01:00,
2013-10-10 01:16:00,64.0,51.0,30.83,East,101,0.0,-999.0,62,-99.99,,,0.00,weatherlink.com 1.10,2013-10-10 06:16:00,
2013-10-10 01:33:00,63.8,51.0,30.83,East,101,0.0,-999.0,63,-99.99,,,0.00,weatherlink.com 1.10,2013-10-10 06:33:00,
2013-10-10 01:46:00,63.3,50.0,30.83,East,101,0.0,-999.0,63,-99.99,,,0.00,weatherlink.com 1.10,2013-10-10 06:46:00,
2013-10-10 02:01:00,62.7,49.0,30.83,East,101,0.0,-999.0,61,-99.99,,,0.00,weatherlink.com 1.10,2013-10-10 07:01:00,
2013-10-10 02:16:00,62.4,48.0,30.83,East,101,0.0,-999.0,59,-99.99,,,0.00,weatherlink.com 1.10,2013-10-10 07:16:00,
2013-10-10 02:33:00,62.3,47.0,30.83,East,101,0.0,-999.0,58,-99.99,,,0.00,weatherlink.com 1.10,2013-10-10 07:33:00,
2013-10-10 02:46:00,63.0,47.0,30.82,East,99,1.0,-999.0,56,-99.99,,,0.00,weatherlink.com 1.10,2013-10-10 07:46:00,
2013-10-10 03:01:00,63.4,47.0,30.82,SE,138,0.0,-999.0,56,-99.99,,,0.00,weatherlink.com 1.10,2013-10-10 08:01:00,
2013-10-10 03:16:00,63.5,47.0,30.83,SE,138,0.0,-999.0,56,-99.99,,,0.00,weatherlink.com 1.10,2013-10-10 08:16:00,
2013-10-10 03:35:00,63.7,48.0,30.82,SE,137,0.0,-999.0,57,-99.99,,,0.00,weatherlink.com 1.10,2013-10-10 08:35:00,
2013-10-10 03:46:00,63.8,48.0,30.82,SE,136,0.0,-999.0,56,-99.99,,,0.00,weatherlink.com 1.10,2013-10-10 08:46:00,
2013-10-10 04:01:00,64.1,48.0,30.82,SE,135,0.0,-999.0,57,-99.99,,,0.00,weatherlink.com 1.10,2013-10-10 09:01:00,
2013-10-10 04:16:00,64.0,48.0,30.82,SE,134,0.0,-999.0,57,-99.99,,,0.00,weatherlink.com 1.10,2013-10-10 09:16:00,
2013-10-10 04:33:00,64.0,48.0,30.82,ESE,119,2.0,-999.0,57,-99.99,,,0.00,weatherlink.com 1.10,2013-10-10 09:33:00,
2013-10-10 04:46:00,64.4,48.0,30.81,ESE,111,2.0,-999.0,56,-99.99,,,0.00,weatherlink.com 1.10,2013-10-10 09:46:00,
2013-10-10 05:01:00,65.1,49.0,30.81,East,92,0.0,-999.0,57,-99.99,,,0.00,weatherlink.com 1.10,2013-10-10 10:01:00,
2013-10-10 05:16:00,65.5,50.0,30.81,East,92,3.0,-999.0,57,-99.99,,,0.00,weatherlink.com 1.10,2013-10-10 10:16:00,
2013-10-10 05:33:00,65.4,51.0,30.82,East,86,1.0,-999.0,59,-99.99,,,0.00,weatherlink.com 1.10,2013-10-10 10:33:00,
2013-10-10 05:46:00,64.6,49.0,30.81,East,86,0.0,-999.0,58,-99.99,,,0.00,weatherlink.com 1.10,2013-10-10 10:46:00,
2013-10-10 06:01:00,64.2,49.0,30.81,East,85,1.0,-999.0,58,-99.99,,,0.00,weatherlink.com 1.10,2013-10-10 11:01:00,
2013-10-10 06:16:00,64.1,48.0,30.81,East,85,1.0,-999.0,57,-99.99,,,0.00,weatherlink.com 1.10,2013-10-10 11:16:00,
2013-10-10 06:33:00,64.0,48.0,30.81,East,85,2.0,-999.0,57,-99.99,,,0.00,weatherlink.com 1.10,2013-10-10 11:33:00,
2013-10-10 06:46:00,64.0,48.0,30.81,East,87,0.0,-999.0,56,-99.99,,,0.00,weatherlink.com 1.10,2013-10-10 11:46:00,
2013-10-10 07:01:00,63.9,48.0,30.81,East,84,1.0,-999.0,56,-99.99,,,0.00,weatherlink.com 1.10,2013-10-10 12:01:00,
2013-10-10 07:16:00,63.9,48.0,30.81,ENE,73,2.0,-999.0,56,-99.99,,,0.00,weatherlink.com 1.10,2013-10-10 12:16:00,
2013-10-10 07:33:00,64.0,48.0,30.81,ENE,60,2.0,-999.0,56,-99.99,,,0.00,weatherlink.com 1.10,2013-10-10 12:33:00,
2013-10-10 07:46:00,64.2,48.0,30.81,NE,53,4.0,-999.0,55,-99.99,,,0.00,weatherlink.com 1.10,2013-10-10 12:46:00,
2013-10-10 08:01:00,64.9,48.0,30.82,East,80,2.0,-999.0,55,-99.99,,,0.00,weatherlink.com 1.10,2013-10-10 13:01:00,
2013-10-10 08:16:00,66.0,50.0,30.82,ENE,73,1.0,-999.0,56,-99.99,,,0.00,weatherlink.com 1.10,2013-10-10 13:16:00,
2013-10-10 08:33:00,67.3,51.0,30.82,East,88,3.0,-999.0,57,-99.99,,,0.00,weatherlink.com 1.10,2013-10-10 13:33:00,
2013-10-10 08:46:00,68.2,53.0,30.83,East,90,5.0,-999.0,59,-99.99,,,0.00,weatherlink.com 1.10,2013-10-10 13:46:00,
2013-10-10 09:01:00,69.3,55.0,30.84,East,88,3.0,-999.0,61,-99.99,,,0.00,weatherlink.com 1.10,2013-10-10 14:01:00,
2013-10-10 09:16:00,70.4,57.0,30.84,East,81,2.0,-999.0,63,-99.99,,,0.00,weatherlink.com 1.10,2013-10-10 14:16:00,
2013-10-10 09:33:00,71.6,59.0,30.84,ENE,76,3.0,-999.0,64,-99.99,,,0.00,weatherlink.com 1.10,2013-10-10 14:33:00,
2013-10-10 09:46:00,73.6,62.0,30.84,East,88,5.0,-999.0,68,-99.99,,,0.00,weatherlink.com 1.10,2013-10-10 14:46:00,
2013-10-10 10:01:00,74.9,64.0,30.84,SE,132,0.0,-999.0,68,-99.99,,,0.00,weatherlink.com 1.10,2013-10-10 15:01:00,
2013-10-10 10:16:00,76.5,65.0,30.84,ESE,119,1.0,-999.0,67,-99.99,,,0.00,weatherlink.com 1.10,2013-10-10 15:16:00,
2013-10-10 10:31:00,77.3,65.0,30.84,ENE,73,2.0,-999.0,66,-99.99,,,0.00,weatherlink.com 1.10,2013-10-10 15:31:00,
2013-10-10 10:46:00,78.0,65.0,30.84,South,179,10.0,-999.0,65,-99.99,,,0.00,weatherlink.com 1.10,2013-10-10 15:46:00,
2013-10-10 11:06:00,78.2,65.0,30.84,SSE,153,4.0,-999.0,65,-99.99,,,0.00,weatherlink.com 1.10,2013-10-10 16:06:00,
2013-10-10 11:16:00,78.8,66.0,30.84,SE,146,2.0,-999.0,64,-99.99,,,0.00,weatherlink.com 1.10,2013-10-10 16:16:00,
2013-10-10 11:31:00,79.5,66.0,30.83,South,173,4.0,-999.0,63,-99.99,,,0.00,weatherlink.com 1.10,2013-10-10 16:31:00,
2013-10-10 11:46:00,80.1,67.0,30.82,SSE,164,4.0,-999.0,64,-99.99,,,0.00,weatherlink.com 1.10,2013-10-10 16:46:00,
2013-10-10 12:06:00,80.2,66.0,30.82,South,169,7.0,-999.0,63,-99.99,,,0.00,weatherlink.com 1.10,2013-10-10 17:06:00,
2013-10-10 12:16:00,79.8,65.0,30.81,South,170,1.0,-999.0,60,-99.99,,,0.00,weatherlink.com 1.10,2013-10-10 17:16:00,
2013-10-10 12:31:00,80.5,65.0,30.80,South,173,5.0,-999.0,60,-99.99,,,0.00,weatherlink.com 1.10,2013-10-10 17:31:00,
2013-10-10 12:46:00,82.0,65.0,30.79,SSE,156,3.0,-999.0,57,-99.99,,,0.00,weatherlink.com 1.10,2013-10-10 17:46:00,
2013-10-10 13:06:00,82.4,65.0,30.79,ESE,121,3.0,-999.0,56,-99.99,,,0.00,weatherlink.com 1.10,2013-10-10 18:06:00,
2013-10-10 13:17:00,81.5,65.0,30.78,South,190,3.0,-999.0,57,-99.99,,,0.00,weatherlink.com 1.10,2013-10-10 18:17:00,
2013-10-10 13:32:00,82.1,66.0,30.77,ENE,78,2.0,-999.0,58,-99.99,,,0.00,weatherlink.com 1.10,2013-10-10 18:32:00,
2013-10-10 13:47:00,82.8,65.0,30.76,SSW,192,3.0,-999.0,55,-99.99,,,0.00,weatherlink.com 1.10,2013-10-10 18:47:00,
2013-10-10 14:06:00,83.3,65.0,30.75,South,188,5.0,-999.0,55,-99.99,,,0.00,weatherlink.com 1.10,2013-10-10 19:06:00,
2013-10-10 14:17:00,83.9,65.0,30.74,South,184,2.0,-999.0,53,-99.99,,,0.00,weatherlink.com 1.10,2013-10-10 19:17:00,
2013-10-10 14:32:00,84.3,64.0,30.73,East,84,3.0,-999.0,50,-99.99,,,0.00,weatherlink.com 1.10,2013-10-10 19:32:00,
2013-10-10 14:47:00,84.9,65.0,30.73,SSE,163,6.0,-999.0,52,-99.99,,,0.00,weatherlink.com 1.10,2013-10-10 19:47:00,
2013-10-10 15:06:00,84.7,66.0,30.72,South,186,5.0,-999.0,53,-99.99,,,0.00,weatherlink.com 1.10,2013-10-10 20:06:00,
2013-10-10 15:17:00,84.9,66.0,30.71,South,185,6.0,-999.0,53,-99.99,,,0.00,weatherlink.com 1.10,2013-10-10 20:17:00,
2013-10-10 15:32:00,85.3,65.0,30.71,South,180,0.0,-999.0,50,-99.99,,,0.00,weatherlink.com 1.10,2013-10-10 20:32:00,
2013-10-10 15:47:00,85.7,64.0,30.71,South,171,8.0,-999.0,49,-99.99,,,0.00,weatherlink.com 1.10,2013-10-10 20:47:00,
2013-10-10 16:07:00,85.4,65.0,30.71,SSE,168,6.0,-999.0,50,-99.99,,,0.00,weatherlink.com 1.10,2013-10-10 21:07:00,
2013-10-10 16:17:00,85.6,66.0,30.70,SSE,168,7.0,-999.0,52,-99.99,,,0.00,weatherlink.com 1.10,2013-10-10 21:17:00,
2013-10-10 16:32:00,85.3,65.0,30.70,South,179,5.0,-999.0,50,-99.99,,,0.00,weatherlink.com 1.10,2013-10-10 21:32:00,
2013-10-10 16:47:00,85.5,65.0,30.70,South,178,4.0,-999.0,51,-99.99,,,0.00,weatherlink.com 1.10,2013-10-10 21:47:00,
2013-10-10 17:06:00,85.2,64.0,30.70,South,170,3.0,-999.0,49,-99.99,,,0.00,weatherlink.com 1.10,2013-10-10 22:06:00,
2013-10-10 17:17:00,84.9,64.0,30.70,SSE,150,4.0,-999.0,49,-99.99,,,0.00,weatherlink.com 1.10,2013-10-10 22:17:00,
2013-10-10 17:32:00,84.6,64.0,30.70,South,169,5.0,-999.0,50,-99.99,,,0.00,weatherlink.com 1.10,2013-10-10 22:32:00,
2013-10-10 17:48:00,84.1,64.0,30.69,SSE,160,4.0,-999.0,51,-99.99,,,0.00,weatherlink.com 1.10,2013-10-10 22:48:00,
2013-10-10 18:06:00,83.6,64.0,30.69,SSE,163,3.0,-999.0,52,-99.99,,,0.00,weatherlink.com 1.10,2013-10-10 23:06:00,
2013-10-10 18:18:00,82.2,63.0,30.69,South,169,2.0,-999.0,53,-99.99,,,0.00,weatherlink.com 1.10,2013-10-10 23:18:00,
2013-10-10 18:33:00,80.7,63.0,30.69,SSE,158,2.0,-999.0,55,-99.99,,,0.00,weatherlink.com 1.10,2013-10-10 23:33:00,
2013-10-10 18:48:00,79.4,63.0,30.68,South,172,2.0,-999.0,58,-99.99,,,0.00,weatherlink.com 1.10,2013-10-10 23:48:00,
2013-10-10 19:06:00,78.3,63.0,30.68,South,172,0.0,-999.0,59,-99.99,,,0.00,weatherlink.com 1.10,2013-10-11 00:06:00,
2013-10-10 19:17:00,76.7,63.0,30.68,South,172,0.0,-999.0,62,-99.99,,,0.00,weatherlink.com 1.10,2013-10-11 00:17:00,
2013-10-10 19:32:00,75.3,63.0,30.68,SE,136,1.0,-999.0,65,-99.99,,,0.00,weatherlink.com 1.10,2013-10-11 00:32:00,
2013-10-10 19:47:00,75.8,63.0,30.69,East,80,1.0,-999.0,65,-99.99,,,0.00,weatherlink.com 1.10,2013-10-11 00:47:00,
2013-10-10 20:07:00,76.1,64.0,30.70,ENE,76,1.0,-999.0,66,-99.99,,,0.00,weatherlink.com 1.10,2013-10-11 01:07:00,
2013-10-10 20:18:00,75.6,64.0,30.70,SE,140,2.0,-999.0,68,-99.99,,,0.00,weatherlink.com 1.10,2013-10-11 01:18:00,
2013-10-10 20:33:00,75.7,64.0,30.70,SE,140,2.0,-999.0,68,-99.99,,,0.00,weatherlink.com 1.10,2013-10-11 01:33:00,
2013-10-10 20:48:00,75.5,64.0,30.71,SSE,162,3.0,-999.0,68,-99.99,,,0.00,weatherlink.com 1.10,2013-10-11 01:48:00,
2013-10-10 21:07:00,75.2,64.0,30.71,SSE,157,3.0,-999.0,68,-99.99,,,0.00,weatherlink.com 1.10,2013-10-11 02:07:00,
2013-10-10 21:18:00,74.8,64.0,30.72,SSE,161,2.0,-999.0,68,-99.99,,,0.00,weatherlink.com 1.10,2013-10-11 02:18:00,
2013-10-10 21:33:00,74.4,63.0,30.72,SE,144,3.0,-999.0,68,-99.99,,,0.00,weatherlink.com 1.10,2013-10-11 02:33:00,
2013-10-10 21:48:00,74.2,63.0,30.73,SSE,159,3.0,-999.0,67,-99.99,,,0.00,weatherlink.com 1.10,2013-10-11 02:48:00,
2013-10-10 22:07:00,73.8,62.0,30.73,South,175,3.0,-999.0,67,-99.99,,,0.00,weatherlink.com 1.10,2013-10-11 03:07:00,
2013-10-10 22:18:00,73.4,61.0,30.73,ESE,116,2.0,-999.0,66,-99.99,,,0.00,weatherlink.com 1.10,2013-10-11 03:18:00,
2013-10-10 22:33:00,72.9,60.0,30.73,SSE,148,2.0,-999.0,65,-99.99,,,0.00,weatherlink.com 1.10,2013-10-11 03:33:00,
2013-10-10 22:48:00,72.4,59.0,30.73,SSE,161,2.0,-999.0,64,-99.99,,,0.00,weatherlink.com 1.10,2013-10-11 03:48:00,
2013-10-10 23:07:00,72.2,59.0,30.73,SSE,161,0.0,-999.0,63,-99.99,,,0.00,weatherlink.com 1.10,2013-10-11 04:07:00,
2013-10-10 23:18:00,72.0,58.0,30.73,SSE,154,0.0,-999.0,62,-99.99,,,0.00,weatherlink.com 1.10,2013-10-11 04:18:00,
2013-10-10 23:33:00,71.8,58.0,30.73,ENE,74,0.0,-999.0,62,-99.99,,,0.00,weatherlink.com 1.10,2013-10-11 04:33:00,
2013-10-10 23:48:00,71.7,58.0,30.73,ENE,74,1.0,-999.0,62,-99.99,,,0.00,weatherlink.com 1.10,2013-10-11 04:48:00,